Time;durP1;ratioP1;P1;durP2;ratioP2;P2;SDS_P1;SDS_P2;PMS_P1;PMS_P2;Temp;Humidity;BMP_temperature;BMP_pressure;BME280_temperature;BME280_humidity;BME280_pressure;Samples;Min_cycle;Max_cycle;Signal;HPM_P1;HPM_P2
2022/06/15 00:01:22;;;;;;;1.42;1.33;;;12.90;86.40;;;;;;4999588;28;20113;-78
2022/06/15 00:03:48;;;;;;;1.83;1.30;;;12.90;86.20;;;;;;4997991;28;20517;-78
2022/06/15 00:06:22;;;;;;;1.60;1.45;;;12.80;85.50;;;;;;5015350;28;20033;-78
2022/06/15 00:08:51;;;;;;;3.30;1.70;;;12.80;85.40;;;;;;4999733;28;20042;-78
2022/06/15 00:11:23;;;;;;;2.65;1.55;;;12.80;86.20;;;;;;5009268;28;20450;-78
2022/06/15 00:13:51;;;;;;;2.08;1.73;;;12.70;87.00;;;;;;5002847;28;20026;-78
2022/06/15 00:16:17;;;;;;;1.60;1.42;;;12.70;87.90;;;;;;5016060;28;20057;-79
2022/06/15 00:18:46;;;;;;;2.05;1.40;;;12.70;88.10;;;;;;5016498;28;20026;-78
2022/06/15 00:21:14;;;;;;;1.60;1.40;;;12.60;88.40;;;;;;5016075;28;20539;-78
2022/06/15 00:23:40;;;;;;;1.70;1.60;;;12.60;89.00;;;;;;5009492;28;20034;-78
2022/06/15 00:26:07;;;;;;;2.45;1.58;;;12.50;89.20;;;;;;4999772;28;20061;-78
2022/06/15 00:28:34;;;;;;;2.15;1.70;;;12.50;89.40;;;;;;5013634;28;20038;-78
2022/06/15 00:31:00;;;;;;;2.10;1.60;;;12.50;89.80;;;;;;5006453;28;20056;-78
2022/06/15 00:33:28;;;;;;;3.05;1.85;;;12.40;90.10;;;;;;4998523;28;20396;-78
2022/06/15 00:35:57;;;;;;;3.03;1.60;;;12.40;90.50;;;;;;5012144;28;20116;-78
2022/06/15 00:38:44;;;;;;;2.85;2.17;;;12.40;90.90;;;;;;5017002;28;20378;-78
2022/06/15 00:41:17;;;;;;;3.13;2.03;;;12.40;91.30;;;;;;5010905;28;20444;-79
2022/06/15 00:43:47;;;;;;;2.20;2.00;;;12.30;91.10;;;;;;5012003;28;20076;-79
2022/06/15 00:46:19;;;;;;;2.75;2.10;;;12.30;91.00;;;;;;5012596;28;20038;-79
2022/06/15 00:48:49;;;;;;;3.95;2.10;;;12.30;91.30;;;;;;5015189;28;20034;-79
2022/06/15 00:51:15;;;;;;;3.80;2.20;;;12.20;91.50;;;;;;5001652;28;20041;-79
2022/06/15 00:53:41;;;;;;;2.30;2.10;;;12.20;91.60;;;;;;5022115;28;20022;-80
2022/06/15 00:56:08;;;;;;;3.05;2.22;;;12.20;92.00;;;;;;5020968;28;20036;-79
2022/06/15 00:58:37;;;;;;;2.38;1.83;;;12.20;92.20;;;;;;5021449;28;20046;-79
2022/06/15 01:01:05;;;;;;;3.40;2.03;;;12.10;92.30;;;;;;5002533;28;20038;-79
2022/06/15 01:03:31;;;;;;;4.00;2.17;;;12.10;92.50;;;;;;5003343;28;20512;-78
2022/06/15 01:05:59;;;;;;;3.15;2.20;;;12.10;92.80;;;;;;5009287;28;20386;-79
2022/06/15 01:08:37;;;;;;;2.88;2.15;;;12.10;92.80;;;;;;5023191;28;20061;-79
2022/06/15 01:11:36;;;;;;;2.53;2.30;;;12.00;92.70;;;;;;5016838;28;20079;-79
2022/06/15 01:14:21;;;;;;;5.75;2.63;;;12.00;93.00;;;;;;4990493;28;20094;-78
2022/06/15 01:17:14;;;;;;;2.38;2.15;;;12.00;93.40;;;;;;5027464;28;20030;-79
2022/06/15 01:19:46;;;;;;;2.45;1.98;;;12.00;93.60;;;;;;5019013;28;20034;-79
2022/06/15 01:22:30;;;;;;;2.70;2.22;;;12.00;93.50;;;;;;5017276;28;20027;-78
2022/06/15 01:25:36;;;;;;;3.20;2.05;;;11.90;93.40;;;;;;5044800;28;20026;-79
2022/06/15 01:28:38;;;;;;;3.17;1.90;;;12.00;93.70;;;;;;5017317;28;20497;-78
2022/06/15 01:31:10;;;;;;;3.13;1.95;;;11.90;94.60;;;;;;5015749;28;20269;-78
2022/06/15 01:34:13;;;;;;;2.03;1.83;;;11.90;95.10;;;;;;5020449;28;20046;-78
2022/06/15 01:36:42;;;;;;;3.80;1.63;;;11.90;94.80;;;;;;5035063;28;20045;-78
2022/06/15 01:39:28;;;;;;;2.35;1.90;;;11.80;94.90;;;;;;5014590;28;20030;-79
2022/06/15 01:42:15;;;;;;;1.83;1.73;;;11.80;95.10;;;;;;5017782;28;20040;-78
2022/06/15 01:45:12;;;;;;;4.15;1.90;;;11.70;95.40;;;;;;5011771;28;20038;-78
2022/06/15 01:47:41;;;;;;;4.78;1.85;;;11.70;95.40;;;;;;4980149;28;20061;-79
2022/06/15 01:50:23;;;;;;;2.17;1.90;;;11.70;95.90;;;;;;5015247;28;20038;-78
2022/06/15 01:53:05;;;;;;;2.20;2.00;;;11.60;96.10;;;;;;4994990;28;20030;-78
2022/06/15 01:55:42;;;;;;;3.85;2.50;;;11.60;96.70;;;;;;5008732;28;20496;-78
2022/06/15 01:58:11;;;;;;;2.30;2.10;;;11.50;97.30;;;;;;5002414;28;20037;-78
2022/06/15 02:00:38;;;;;;;2.70;2.25;;;11.50;96.90;;;;;;5020661;28;20025;-78
2022/06/15 02:03:11;;;;;;;2.45;2.25;;;11.50;97.20;;;;;;5001761;28;20042;-79
2022/06/15 02:06:00;;;;;;;3.70;2.25;;;11.50;97.30;;;;;;5018244;28;20025;-78
2022/06/15 02:09:08;;;;;;;2.50;2.30;;;11.40;97.30;;;;;;5019537;28;20030;-78
2022/06/15 02:11:38;;;;;;;2.85;2.55;;;11.40;97.40;;;;;;5008446;28;20054;-78
2022/06/15 02:14:27;;;;;;;4.00;2.50;;;11.40;97.50;;;;;;4990632;28;20409;-78
2022/06/15 02:16:58;;;;;;;4.00;2.50;;;11.40;97.80;;;;;;5004253;28;20038;-78
2022/06/15 02:19:32;;;;;;;2.80;2.20;;;11.40;98.30;;;;;;5000932;28;20034;-78
2022/06/15 02:22:08;;;;;;;3.35;2.40;;;11.30;98.50;;;;;;5000598;28;20031;-78
2022/06/15 02:24:35;;;;;;;3.85;1.92;;;11.30;98.80;;;;;;5012475;28;20066;-78
2022/06/15 02:27:04;;;;;;;2.30;1.92;;;11.30;99.00;;;;;;5025825;28;20607;-77
2022/06/15 02:29:34;;;;;;;2.00;1.75;;;11.30;99.00;;;;;;5006298;28;20105;-77
2022/06/15 02:32:01;;;;;;;3.70;2.20;;;11.30;99.20;;;;;;5032946;28;20512;-78
2022/06/15 02:34:27;;;;;;;2.55;1.95;;;11.30;99.10;;;;;;5020485;28;20036;-77
2022/06/15 02:36:54;;;;;;;2.28;2.10;;;11.30;99.70;;;;;;5015325;28;20040;-77
2022/06/15 02:39:22;;;;;;;4.78;2.08;;;11.30;99.70;;;;;;5037867;28;20491;-78
2022/06/15 02:42:02;;;;;;;3.20;2.20;;;11.20;99.80;;;;;;5007870;28;20516;-77
2022/06/15 02:44:33;;;;;;;2.95;2.60;;;11.20;99.90;;;;;;5016207;28;20040;-78
2022/06/15 02:46:59;;;;;;;2.70;2.50;;;11.20;99.90;;;;;;5016500;28;20111;-77
2022/06/15 02:49:26;;;;;;;2.65;2.33;;;11.20;99.90;;;;;;5012953;28;20029;-77
2022/06/15 02:51:57;;;;;;;3.38;2.28;;;11.20;99.90;;;;;;4997445;28;20033;-77
2022/06/15 02:54:39;;;;;;;4.90;2.70;;;11.20;99.90;;;;;;5021348;28;20112;-77
2022/06/15 02:57:13;;;;;;;3.35;2.65;;;11.20;99.90;;;;;;5022257;28;20034;-78
2022/06/15 02:59:40;;;;;;;4.30;3.03;;;11.20;99.90;;;;;;5011892;28;20381;-78
2022/06/15 03:02:07;;;;;;;5.50;2.55;;;11.20;99.90;;;;;;5016856;28;20044;-77
2022/06/15 03:04:37;;;;;;;3.17;2.40;;;11.20;99.90;;;;;;5032366;28;20038;-77
2022/06/15 03:07:03;;;;;;;3.83;2.20;;;11.10;99.90;;;;;;5004753;28;20062;-77
2022/06/15 03:09:29;;;;;;;3.00;2.70;;;11.10;99.90;;;;;;5017131;28;20034;-78
2022/06/15 03:11:55;;;;;;;3.05;2.63;;;11.10;99.90;;;;;;5015384;28;20566;-78
2022/06/15 03:14:28;;;;;;;2.45;2.25;;;11.10;99.90;;;;;;5019845;28;20625;-77
2022/06/15 03:16:56;;;;;;;4.90;2.45;;;11.10;99.90;;;;;;5001292;28;20572;-77
2022/06/15 03:19:24;;;;;;;3.58;2.55;;;11.00;99.90;;;;;;5016889;28;20041;-78
2022/06/15 03:21:58;;;;;;;3.50;2.67;;;11.00;99.90;;;;;;5031582;28;20499;-77
2022/06/15 03:24:25;;;;;;;2.63;2.42;;;11.00;99.90;;;;;;5023294;28;20041;-77
2022/06/15 03:26:51;;;;;;;4.38;3.00;;;11.00;99.90;;;;;;5014386;28;20044;-77
2022/06/15 03:29:20;;;;;;;3.50;2.17;;;11.00;99.90;;;;;;5005139;28;20030;-77
2022/06/15 03:31:49;;;;;;;3.05;2.42;;;11.00;99.90;;;;;;5023561;28;20401;-77
2022/06/15 03:34:15;;;;;;;3.88;2.65;;;11.00;99.90;;;;;;5001114;28;20057;-77
2022/06/15 03:36:41;;;;;;;2.70;2.50;;;11.00;99.90;;;;;;5030048;28;20505;-77
2022/06/15 03:39:07;;;;;;;2.63;2.42;;;11.00;99.90;;;;;;5017594;28;20087;-78
2022/06/15 03:41:40;;;;;;;3.75;2.10;;;11.00;99.90;;;;;;5006476;28;20034;-78
2022/06/15 03:44:05;;;;;;;5.75;2.50;;;11.10;99.90;;;;;;5032155;28;20388;-78
2022/06/15 03:46:33;;;;;;;2.10;2.00;;;11.10;99.90;;;;;;5009121;28;20037;-77
2022/06/15 03:49:28;;;;;;;3.55;2.08;;;11.10;99.90;;;;;;4981885;28;20042;-77
2022/06/15 03:51:53;;;;;;;3.47;2.20;;;11.10;99.90;;;;;;5010389;28;20397;-78
2022/06/15 03:54:20;;;;;;;3.88;2.50;;;11.10;99.90;;;;;;4995930;28;20038;-78
2022/06/15 03:56:48;;;;;;;2.85;2.45;;;11.10;99.90;;;;;;5005081;28;20394;-78
2022/06/15 03:59:29;;;;;;;2.80;2.60;;;11.10;99.90;;;;;;4989964;28;20036;-79
2022/06/15 04:02:00;;;;;;;3.63;2.53;;;11.10;99.90;;;;;;5004026;28;20389;-78
2022/06/15 04:04:27;;;;;;;2.33;2.13;;;11.10;99.90;;;;;;5011848;28;20060;-78
2022/06/15 04:06:55;;;;;;;2.55;2.35;;;11.10;99.90;;;;;;4991508;28;20045;-78
2022/06/15 04:09:24;;;;;;;3.05;2.67;;;11.10;99.90;;;;;;5006869;28;20041;-78
2022/06/15 04:12:08;;;;;;;2.55;2.25;;;11.20;99.90;;;;;;5011525;28;20038;-78
2022/06/15 04:14:38;;;;;;;4.68;2.70;;;11.10;99.90;;;;;;4989055;28;20114;-78
2022/06/15 04:17:23;;;;;;;2.03;1.92;;;11.20;99.90;;;;;;4994259;28;20035;-79
2022/06/15 04:20:37;;;;;;;2.67;2.30;;;11.20;99.90;;;;;;4978703;28;20046;-78
2022/06/15 04:23:13;;;;;;;3.47;2.45;;;11.30;99.90;;;;;;5016544;28;20557;-79
2022/06/15 04:25:47;;;;;;;3.05;2.60;;;11.30;99.90;;;;;;5005242;28;20492;-79
2022/06/15 04:28:15;;;;;;;2.50;2.13;;;11.30;99.90;;;;;;5005379;28;20065;-79
2022/06/15 04:30:42;;;;;;;1.90;1.80;;;11.40;99.90;;;;;;4998352;28;20049;-79
2022/06/15 04:33:09;;;;;;;2.58;2.38;;;11.50;99.90;;;;;;4997519;28;20107;-79
2022/06/15 04:35:36;;;;;;;2.20;2.00;;;11.50;99.90;;;;;;5011903;28;20041;-79
2022/06/15 04:38:06;;;;;;;2.60;2.00;;;11.60;99.90;;;;;;5007922;28;20436;-78
2022/06/15 04:40:39;;;;;;;2.33;2.13;;;11.70;99.90;;;;;;4992649;28;20175;-79
2022/06/15 04:43:07;;;;;;;2.75;2.20;;;11.70;99.90;;;;;;5008813;28;20116;-77
2022/06/15 04:45:33;;;;;;;3.60;2.65;;;11.80;99.90;;;;;;5010924;28;20025;-79
2022/06/15 04:48:06;;;;;;;2.45;2.25;;;11.80;99.90;;;;;;4995966;28;20111;-79
2022/06/15 04:50:32;;;;;;;3.72;2.20;;;11.90;99.90;;;;;;5006751;28;20378;-79
2022/06/15 04:53:00;;;;;;;3.08;2.55;;;11.90;99.90;;;;;;5008731;28;20026;-79
2022/06/15 04:55:26;;;;;;;2.63;2.33;;;12.00;99.90;;;;;;5006580;28;20501;-79
2022/06/15 04:57:58;;;;;;;2.60;2.40;;;12.10;99.90;;;;;;4994958;28;20057;-79
2022/06/15 05:00:30;;;;;;;3.00;2.58;;;12.20;99.90;;;;;;5013222;28;20038;-79
2022/06/15 05:02:56;;;;;;;2.63;2.42;;;12.30;99.90;;;;;;4992424;28;20030;-79
2022/06/15 05:05:23;;;;;;;3.28;2.60;;;12.40;99.90;;;;;;5009860;28;20030;-79
2022/06/15 05:07:52;;;;;;;2.60;2.40;;;12.50;99.90;;;;;;4997363;28;20026;-79
2022/06/15 05:10:21;;;;;;;3.33;2.17;;;12.60;99.90;;;;;;5011789;28;20026;-79
2022/06/15 05:12:50;;;;;;;3.72;2.25;;;12.70;99.90;;;;;;5021953;28;20038;-79
2022/06/15 05:15:18;;;;;;;3.63;2.30;;;12.80;99.90;;;;;;4994096;28;20037;-79
2022/06/15 05:17:46;;;;;;;6.22;2.78;;;12.90;99.90;;;;;;5008923;28;20042;-79
2022/06/15 05:20:16;;;;;;;2.78;2.28;;;13.00;99.90;;;;;;5005059;28;20154;-80
2022/06/15 05:22:43;;;;;;;3.83;2.20;;;13.10;99.90;;;;;;4995397;28;20521;-79
2022/06/15 05:25:11;;;;;;;3.60;2.03;;;13.30;99.90;;;;;;5006274;28;20459;-79
2022/06/15 05:27:38;;;;;;;2.97;2.78;;;13.50;99.90;;;;;;5008738;28;20041;-79
2022/06/15 05:30:05;;;;;;;3.10;2.22;;;13.70;99.90;;;;;;4983268;28;20042;-79
2022/06/15 05:32:31;;;;;;;2.55;2.05;;;14.00;99.90;;;;;;4989345;28;20026;-80
2022/06/15 05:34:57;;;;;;;3.20;2.38;;;14.50;99.90;;;;;;4994222;28;20481;-78
2022/06/15 05:37:23;;;;;;;4.40;2.53;;;14.90;99.90;;;;;;5005657;28;20026;-79
2022/06/15 05:39:49;;;;;;;2.90;2.30;;;15.40;98.90;;;;;;4982343;28;20096;-80
2022/06/15 05:42:17;;;;;;;7.28;2.00;;;15.90;97.40;;;;;;4991957;28;20429;-79
2022/06/15 05:44:53;;;;;;;2.40;2.17;;;16.40;96.60;;;;;;4969556;28;20555;-80
2022/06/15 05:47:18;;;;;;;4.97;2.40;;;16.90;94.30;;;;;;4993975;28;20038;-80
2022/06/15 05:50:14;;;;;;;3.03;2.22;;;17.50;93.00;;;;;;5002031;28;20033;-80
2022/06/15 05:53:00;;;;;;;2.80;2.15;;;17.90;90.20;;;;;;5010877;28;20042;-80
2022/06/15 05:55:26;;;;;;;2.13;1.58;;;18.20;87.30;;;;;;5001349;28;20480;-79
2022/06/15 05:57:52;;;;;;;2.28;2.00;;;18.40;85.40;;;;;;4978616;28;20093;-79
2022/06/15 06:00:19;;;;;;;5.95;2.08;;;18.80;83.50;;;;;;5002623;28;20546;-79
2022/06/15 06:02:44;;;;;;;2.97;1.90;;;19.10;82.70;;;;;;4998549;28;20049;-80
2022/06/15 06:05:10;;;;;;;2.88;2.00;;;19.20;79.70;;;;;;5008682;28;20497;-79
2022/06/15 06:07:36;;;;;;;2.55;1.90;;;19.60;79.70;;;;;;5007124;28;20029;-80
2022/06/15 06:10:03;;;;;;;3.95;2.10;;;19.70;77.50;;;;;;5007241;28;20025;-79
2022/06/15 06:12:29;;;;;;;3.67;1.67;;;20.00;76.00;;;;;;5007211;28;20559;-80
2022/06/15 06:14:56;;;;;;;2.15;1.73;;;19.90;74.80;;;;;;4999133;28;20034;-80
2022/06/15 06:17:22;;;;;;;2.70;1.83;;;19.90;75.30;;;;;;5014430;28;20065;-79
2022/06/15 06:19:48;;;;;;;3.05;1.75;;;20.30;75.10;;;;;;4997174;28;20033;-80
2022/06/15 06:22:14;;;;;;;2.95;2.15;;;20.50;75.40;;;;;;5001927;28;20042;-80
2022/06/15 06:24:39;;;;;;;5.15;1.83;;;20.70;72.90;;;;;;5006786;28;20060;-81
2022/06/15 06:27:06;;;;;;;2.00;1.58;;;21.00;71.40;;;;;;4982381;28;20034;-81
2022/06/15 06:29:33;;;;;;;2.13;1.80;;;21.20;70.00;;;;;;5010707;28;20034;-80
2022/06/15 06:32:00;;;;;;;2.22;1.60;;;21.50;70.00;;;;;;5002875;28;20544;-80
2022/06/15 06:34:29;;;;;;;2.10;1.95;;;21.80;68.00;;;;;;4990319;28;20041;-80
2022/06/15 06:36:55;;;;;;;3.50;1.67;;;22.00;66.90;;;;;;5015372;28;20034;-79
2022/06/15 06:39:28;;;;;;;1.30;1.20;;;22.30;66.90;;;;;;4999056;28;20026;-80
2022/06/15 06:41:56;;;;;;;2.50;1.65;;;22.50;65.60;;;;;;4992901;28;20034;-79
2022/06/15 06:44:22;;;;;;;3.15;1.77;;;22.70;64.90;;;;;;4999680;28;20054;-80
2022/06/15 06:46:50;;;;;;;2.17;1.33;;;22.80;64.80;;;;;;5008766;28;20025;-80
2022/06/15 06:49:17;;;;;;;1.83;1.63;;;22.80;63.90;;;;;;4997340;28;20077;-80
2022/06/15 06:51:43;;;;;;;3.00;1.65;;;23.10;64.70;;;;;;5021937;28;20037;-80
2022/06/15 06:54:11;;;;;;;4.38;2.05;;;23.20;62.90;;;;;;5020639;28;20022;-79
2022/06/15 06:56:37;;;;;;;2.10;1.67;;;23.10;61.20;;;;;;5004217;28;20061;-80
2022/06/15 06:59:09;;;;;;;3.10;1.80;;;23.50;61.60;;;;;;5009451;28;20062;-80
2022/06/15 07:01:39;;;;;;;2.75;2.30;;;23.80;62.40;;;;;;5002873;28;20038;-80
2022/06/15 07:04:06;;;;;;;3.35;1.88;;;23.90;59.50;;;;;;4999939;28;20114;-80
2022/06/15 07:06:32;;;;;;;4.07;1.80;;;23.80;58.90;;;;;;5014734;28;20038;-80
2022/06/15 07:08:58;;;;;;;3.60;1.90;;;23.70;59.40;;;;;;4998306;28;20045;-80
2022/06/15 07:11:24;;;;;;;2.25;1.80;;;23.40;58.80;;;;;;5005456;28;20042;-80
2022/06/15 07:13:50;;;;;;;3.80;1.73;;;23.60;60.50;;;;;;5002231;28;20512;-80
2022/06/15 07:16:19;;;;;;;2.97;2.15;;;24.00;62.20;;;;;;5000470;28;20073;-79
2022/06/15 07:18:47;;;;;;;3.03;1.70;;;24.50;58.30;;;;;;5006808;28;20080;-79
2022/06/15 07:21:17;;;;;;;3.60;2.05;;;24.60;58.30;;;;;;5007155;28;20088;-80
2022/06/15 07:23:45;;;;;;;3.08;2.05;;;24.70;56.40;;;;;;5005807;28;20110;-79
2022/06/15 07:26:15;;;;;;;2.35;1.65;;;24.70;56.30;;;;;;5012129;28;20064;-80
2022/06/15 07:28:42;;;;;;;3.47;2.10;;;24.80;57.20;;;;;;5009876;28;20034;-81
2022/06/15 07:31:08;;;;;;;2.60;1.98;;;25.10;55.90;;;;;;5012315;28;20072;-80
2022/06/15 07:33:36;;;;;;;1.98;1.80;;;25.20;55.70;;;;;;5010215;28;20034;-80
2022/06/15 07:36:02;;;;;;;6.63;2.10;;;25.10;56.80;;;;;;5002601;28;20037;-80
2022/06/15 07:38:28;;;;;;;3.92;2.20;;;25.50;56.20;;;;;;5008112;28;20405;-81
2022/06/15 07:40:54;;;;;;;3.05;1.60;;;25.50;54.20;;;;;;4997977;28;20038;-81
2022/06/15 07:43:20;;;;;;;2.13;1.90;;;25.60;55.00;;;;;;5011790;28;20495;-80
2022/06/15 07:45:46;;;;;;;2.30;1.85;;;26.10;56.10;;;;;;5010039;28;20444;-81
2022/06/15 07:50:57;;;;;;;2.22;2.03;;;26.80;52.90;;;;;;5004311;28;20373;-80
2022/06/15 07:53:23;;;;;;;2.05;1.75;;;26.70;51.50;;;;;;5013881;28;20500;-78
2022/06/15 07:55:52;;;;;;;2.47;2.28;;;26.80;53.00;;;;;;5000405;28;20057;-78
2022/06/15 07:58:18;;;;;;;2.10;1.80;;;26.60;51.10;;;;;;4995570;28;20053;-80
2022/06/15 08:00:47;;;;;;;2.35;2.10;;;26.60;51.70;;;;;;4994034;28;20037;-81
2022/06/15 08:03:13;;;;;;;4.60;1.73;;;26.60;52.00;;;;;;5016769;28;20038;-80
2022/06/15 08:05:47;;;;;;;2.33;2.00;;;26.80;53.30;;;;;;5018983;28;20038;-80
2022/06/15 08:08:18;;;;;;;4.10;2.38;;;26.70;50.90;;;;;;5002985;28;20035;-80
2022/06/15 08:10:45;;;;;;;4.20;2.35;;;26.40;51.60;;;;;;5031429;28;20597;-81
2022/06/15 08:13:11;;;;;;;4.93;1.95;;;26.30;52.90;;;;;;5018352;28;20469;-81
2022/06/15 08:15:38;;;;;;;3.22;2.00;;;26.30;53.20;;;;;;5002414;28;20052;-81
2022/06/15 08:18:10;;;;;;;3.53;1.95;;;26.10;53.40;;;;;;5012815;28;20049;-81
2022/06/15 08:20:46;;;;;;;2.50;2.00;;;25.50;52.40;;;;;;5012387;28;20083;-80
2022/06/15 08:23:19;;;;;;;2.55;2.17;;;25.40;53.20;;;;;;5016851;28;20030;-80
2022/06/15 08:25:53;;;;;;;7.60;2.22;;;25.30;52.90;;;;;;5018495;28;20476;-80
2022/06/15 08:28:22;;;;;;;2.50;1.98;;;25.10;53.00;;;;;;5003753;28;20125;-80
2022/06/15 08:30:49;;;;;;;3.13;2.00;;;24.90;54.90;;;;;;5024710;28;20026;-80
2022/06/15 08:33:15;;;;;;;4.80;2.40;;;24.80;55.20;;;;;;5021391;28;20423;-81
2022/06/15 08:35:42;;;;;;;2.35;2.15;;;24.90;55.80;;;;;;5014405;28;20029;-80
2022/06/15 08:38:12;;;;;;;3.47;2.28;;;24.70;52.70;;;;;;5013642;28;20033;-80
2022/06/15 08:40:52;;;;;;;2.45;2.03;;;24.70;54.40;;;;;;5009769;28;20030;-80
2022/06/15 08:43:33;;;;;;;2.05;1.95;;;24.80;55.60;;;;;;5007895;28;20436;-80
2022/06/15 08:46:12;;;;;;;6.32;2.20;;;24.80;55.50;;;;;;5007281;28;20042;-81
2022/06/15 08:48:50;;;;;;;7.95;2.20;;;24.90;55.70;;;;;;4996662;28;20072;-80
2022/06/15 08:51:25;;;;;;;4.43;2.10;;;25.10;56.30;;;;;;5013488;28;20036;-80
2022/06/15 08:53:54;;;;;;;2.37;2.17;;;25.10;55.20;;;;;;5016675;28;20027;-78
2022/06/15 08:56:29;;;;;;;6.22;2.28;;;25.20;56.20;;;;;;5016260;28;20040;-82
2022/06/15 08:59:05;;;;;;;5.30;2.38;;;25.40;53.00;;;;;;5009477;28;20041;-81
2022/06/15 09:02:04;;;;;;;3.78;1.92;;;25.40;53.30;;;;;;5008366;28;20031;-81
2022/06/15 09:04:39;;;;;;;5.13;2.33;;;25.40;53.40;;;;;;5020347;28;20417;-81
2022/06/15 09:07:51;;;;;;;3.60;2.00;;;25.60;54.50;;;;;;5028855;28;22351;-81
2022/06/15 09:10:38;;;;;;;2.10;1.80;;;25.60;51.80;;;;;;5007845;28;20268;-81
2022/06/15 09:13:14;;;;;;;3.22;2.28;;;25.60;53.10;;;;;;5021247;28;20030;-81
2022/06/15 09:16:04;;;;;;;4.68;1.90;;;25.30;51.00;;;;;;5010931;28;20041;-80
2022/06/15 09:18:48;;;;;;;5.97;2.00;;;25.40;53.70;;;;;;5020830;28;20080;-79
2022/06/15 09:21:28;;;;;;;4.20;2.42;;;25.30;51.60;;;;;;5018811;28;20026;-79
2022/06/15 09:24:10;;;;;;;5.47;1.70;;;25.30;51.90;;;;;;5028415;28;20044;-79
2022/06/15 09:26:49;;;;;;;2.65;2.17;;;25.20;49.40;;;;;;5012695;28;20061;-78
2022/06/15 09:29:27;;;;;;;2.10;1.90;;;25.00;51.00;;;;;;5006685;28;20049;-78
2022/06/15 09:32:06;;;;;;;3.70;1.90;;;25.10;51.60;;;;;;5022217;28;20034;-79
2022/06/15 09:34:41;;;;;;;5.20;2.05;;;25.20;51.50;;;;;;4987127;28;20030;-78
2022/06/15 09:37:26;;;;;;;;;;;25.20;51.90;;;;;;5021725;28;20033;-78
2022/06/15 09:39:52;;;;;;;2.35;2.00;;;25.30;49.80;;;;;;5010462;28;19917;-78
2022/06/15 09:42:20;;;;;;;5.45;1.80;;;25.40;51.90;;;;;;5007490;28;20034;-79
2022/06/15 09:45:02;;;;;;;3.28;1.52;;;25.40;50.90;;;;;;5014165;28;20034;-78
2022/06/15 09:47:54;;;;;;;3.35;1.70;;;25.40;49.20;;;;;;5037949;28;20117;-79
2022/06/15 09:50:57;;;;;;;3.13;1.70;;;25.50;49.10;;;;;;5005844;28;20034;-78
2022/06/15 09:53:29;;;;;;;1.85;1.58;;;25.30;49.10;;;;;;5006667;28;20576;-81
2022/06/15 09:56:03;;;;;;;1.73;1.60;;;25.20;49.60;;;;;;5023001;28;20348;-78
2022/06/15 09:58:47;;;;;;;3.90;1.50;;;25.00;50.10;;;;;;4986523;28;20038;-80
2022/06/15 10:01:14;;;;;;;3.83;1.30;;;25.00;48.20;;;;;;5006443;28;20033;-81
2022/06/15 10:03:46;;;;;;;2.05;1.30;;;25.10;47.80;;;;;;5012353;28;20156;-81
2022/06/15 10:06:37;;;;;;;2.78;1.48;;;25.00;47.20;;;;;;5001055;28;20030;-81
2022/06/15 10:09:07;;;;;;;2.47;1.10;;;25.10;50.80;;;;;;5000550;28;20034;-80
2022/06/15 10:11:46;;;;;;;2.53;1.90;;;25.20;48.00;;;;;;5003346;28;20034;-81
2022/06/15 10:14:21;;;;;;;1.65;1.30;;;25.10;46.20;;;;;;5007670;28;20108;-80
2022/06/15 10:17:18;;;;;;;1.55;1.45;;;25.10;47.00;;;;;;5009705;28;20437;-81
2022/06/15 10:19:47;;;;;;;2.22;1.42;;;25.00;47.60;;;;;;5007968;28;20121;-81
2022/06/15 10:22:26;;;;;;;2.63;1.40;;;25.10;48.00;;;;;;5027446;28;20069;-82
2022/06/15 10:24:53;;;;;;;2.65;1.40;;;25.10;46.50;;;;;;4995261;28;20030;-82
2022/06/15 10:27:28;;;;;;;1.48;1.23;;;25.20;49.20;;;;;;5009741;28;20083;-79
2022/06/15 10:30:06;;;;;;;;;;;25.30;48.60;;;;;;5012987;28;20378;-81
2022/06/15 10:32:32;;;;;;;2.15;1.65;;;25.40;47.10;;;;;;5024379;28;19909;-81
2022/06/15 10:35:07;;;;;;;2.63;1.52;;;25.50;46.50;;;;;;4999497;28;20086;-81
2022/06/15 10:37:40;;;;;;;3.15;1.35;;;25.50;46.50;;;;;;5010507;28;20091;-80
2022/06/15 10:40:20;;;;;;;1.55;1.20;;;25.50;47.80;;;;;;5002713;28;20033;-80
2022/06/15 10:42:54;;;;;;;4.00;1.77;;;25.60;46.90;;;;;;4989139;28;20037;-80
2022/06/15 10:45:42;;;;;;;3.63;1.27;;;25.60;47.10;;;;;;5010521;28;20620;-80
2022/06/15 10:48:57;;;;;;;2.15;1.20;;;25.70;45.60;;;;;;5001194;28;20037;-79
2022/06/15 10:51:31;;;;;;;1.75;1.10;;;25.90;46.50;;;;;;5001515;28;20697;-79
2022/06/15 10:54:28;;;;;;;2.20;1.00;;;26.00;43.40;;;;;;5011629;28;20034;-79
2022/06/15 11:02:43;;;;;;;2.17;1.00;;;25.90;43.20;;;;;;4997344;28;20452;-77
2022/06/15 11:05:19;;;;;;;1.63;0.93;;;25.90;44.20;;;;;;5009163;28;20042;-79
2022/06/15 11:07:55;;;;;;;2.55;1.10;;;25.90;43.50;;;;;;5012026;28;20104;-79
2022/06/15 11:10:37;;;;;;;1.05;0.82;;;25.90;43.30;;;;;;5003620;28;20089;-78
2022/06/15 11:13:27;;;;;;;2.28;1.17;;;25.90;43.20;;;;;;4999775;28;20492;-78
2022/06/15 11:18:39;;;;;;;1.45;1.10;;;26.00;46.00;;;;;;4995072;28;20066;-80
2022/06/15 11:21:08;;;;;;;0.95;0.73;;;26.10;45.10;;;;;;5015259;28;20087;-78
2022/06/15 11:24:05;;;;;;;1.15;0.70;;;26.30;47.80;;;;;;5021361;28;20033;-79
2022/06/15 11:26:55;;;;;;;2.88;0.75;;;26.50;40.40;;;;;;5043334;28;20112;-80
2022/06/15 11:29:48;;;;;;;1.02;0.70;;;26.50;42.10;;;;;;4998374;28;20038;-79
2022/06/15 11:32:48;;;;;;;0.73;0.73;;;26.60;41.20;;;;;;5015892;28;20038;-80
2022/06/15 11:35:14;;;;;;;1.33;0.70;;;26.60;42.20;;;;;;5008568;28;20033;-79
2022/06/15 11:37:55;;;;;;;0.70;0.70;;;26.70;42.60;;;;;;5001505;28;20037;-78
2022/06/15 11:40:25;;;;;;;1.77;0.70;;;26.70;43.00;;;;;;5004079;28;20493;-77
2022/06/15 11:42:51;;;;;;;1.65;0.77;;;26.90;42.10;;;;;;5013580;28;20049;-79
2022/06/15 11:45:22;;;;;;;1.70;1.05;;;26.90;40.70;;;;;;4994992;28;20038;-79
2022/06/15 11:47:57;;;;;;;1.08;0.98;;;26.90;43.20;;;;;;5022137;28;20030;-79
2022/06/15 11:50:48;;;;;;;0.70;0.70;;;26.80;40.20;;;;;;5005297;28;20493;-78
2022/06/15 11:53:42;;;;;;;1.13;0.73;;;26.80;42.00;;;;;;4999098;28;20030;-79
2022/06/15 11:56:15;;;;;;;1.17;0.73;;;27.00;41.50;;;;;;5006216;28;20052;-79
2022/06/15 11:58:56;;;;;;;0.80;0.70;;;27.30;41.70;;;;;;5005715;28;20042;-78
2022/06/15 12:01:51;;;;;;;2.35;0.77;;;27.60;41.80;;;;;;5017989;28;20068;-79
2022/06/15 12:04:46;;;;;;;1.20;0.70;;;27.60;37.70;;;;;;5034610;28;20050;-79
2022/06/15 12:07:45;;;;;;;0.60;0.60;;;27.60;37.70;;;;;;5019827;28;20085;-78
2022/06/15 12:10:45;;;;;;;0.95;0.70;;;27.50;40.90;;;;;;5004907;28;20038;-79
2022/06/15 12:13:15;;;;;;;0.70;0.70;;;27.70;42.80;;;;;;5012768;28;20030;-79
2022/06/15 12:15:53;;;;;;;1.20;1.10;;;28.10;42.80;;;;;;5007424;28;20109;-78
2022/06/15 12:18:37;;;;;;;0.70;0.70;;;28.40;38.90;;;;;;5010988;28;20034;-79
2022/06/15 12:21:34;;;;;;;0.70;0.60;;;28.70;39.70;;;;;;5008037;28;20018;-79
2022/06/15 12:24:28;;;;;;;0.77;0.60;;;29.10;38.60;;;;;;5016946;28;20478;-78
2022/06/15 12:27:22;;;;;;;5.38;0.90;;;29.30;36.20;;;;;;5006744;28;20030;-78
2022/06/15 12:29:57;;;;;;;2.50;0.68;;;29.40;37.60;;;;;;5010702;28;20030;-79
2022/06/15 12:32:37;;;;;;;0.90;0.60;;;29.80;39.40;;;;;;5012185;28;20025;-78
2022/06/15 12:35:42;;;;;;;1.38;0.60;;;30.20;39.30;;;;;;5008840;28;20041;-78
2022/06/15 12:38:23;;;;;;;18.40;0.68;;;30.60;38.80;;;;;;4992967;28;20149;-78
2022/06/15 12:40:55;;;;;;;1.13;0.98;;;30.90;36.30;;;;;;5011764;28;20060;-79
2022/06/15 12:43:30;;;;;;;1.15;0.70;;;30.90;37.10;;;;;;5031968;28;20040;-78
2022/06/15 12:46:16;;;;;;;;;;;31.00;37.20;;;;;;5033384;28;20377;-79
2022/06/15 12:49:01;;;;;;;0.52;0.47;;;31.20;39.00;;;;;;5006138;28;19920;-78
2022/06/15 12:51:49;;;;;;;0.65;0.40;;;31.20;31.90;;;;;;5023861;28;20377;-78
2022/06/15 12:54:46;;;;;;;0.77;0.47;;;30.70;31.50;;;;;;5032817;28;20112;-78
2022/06/15 12:57:18;;;;;;;1.67;0.57;;;30.70;31.40;;;;;;5025515;28;20681;-78
2022/06/15 13:00:09;;;;;;;0.50;0.50;;;30.50;33.40;;;;;;4998159;28;20401;-79
2022/06/15 13:02:39;;;;;;;1.98;0.70;;;30.70;35.40;;;;;;5024768;28;20033;-79
2022/06/15 13:05:29;;;;;;;0.85;0.70;;;31.10;37.20;;;;;;5000254;28;20037;-79
2022/06/15 13:08:16;;;;;;;1.45;0.80;;;31.50;36.80;;;;;;5001212;28;20079;-79
2022/06/15 13:10:54;;;;;;;0.73;0.73;;;31.80;34.90;;;;;;5014003;28;20018;-78
2022/06/15 13:13:28;;;;;;;0.85;0.80;;;32.10;33.00;;;;;;4996035;28;20639;-77
2022/06/15 13:15:59;;;;;;;2.25;0.93;;;32.20;35.30;;;;;;4992424;28;20029;-79
2022/06/15 13:18:51;;;;;;;3.33;0.80;;;32.50;34.10;;;;;;4991162;28;20073;-78
2022/06/15 13:21:18;;;;;;;0.80;0.80;;;32.90;32.10;;;;;;5005482;28;20067;-78
2022/06/15 13:23:59;;;;;;;0.82;0.82;;;33.00;33.60;;;;;;4990956;28;20040;-79
2022/06/15 13:26:37;;;;;;;0.90;0.80;;;33.20;33.00;;;;;;5012668;28;20034;-79
2022/06/15 13:29:03;;;;;;;1.05;0.82;;;33.10;32.20;;;;;;5000473;28;20070;-77
2022/06/15 13:31:50;;;;;;;1.35;0.70;;;32.90;30.40;;;;;;5015813;28;20040;-78
2022/06/15 13:34:36;;;;;;;1.08;0.90;;;32.30;30.00;;;;;;5012647;28;20036;-78
2022/06/15 13:37:22;;;;;;;0.90;0.90;;;32.10;31.60;;;;;;5008602;28;20040;-79